Terminal Aerodrome Forecast
Issued by NWS

Home | Current Version | Previous Version | Text Only | Print | Product List | Glossary On
Versions: 1 2 3 4 5 6 7 8 9 10 11 12
000
FTUS43 KAPX 172300
TAFAPN
TAF
KAPN 172334Z 1800/1824 13009KT P6SM OVC200
     FM180200 VRB03KT P6SM OVC200
     FM181300 30008KT P6SM FEW030 BKN150
     FM181700 32010G17KT P6SM FEW040 BKN150=

USA.gov is the U.S. government's official web portal to all federal, state and local government web resources and services.